sensor_id;sensor_type;location;lat;lon;timestamp;temperature;humidity
5061;DHT22;2549;52.128;21.068;2022-09-03T00:01:19;17.10;75.80
5061;DHT22;2549;52.128;21.068;2022-09-03T00:03:58;17.10;76.00
5061;DHT22;2549;52.128;21.068;2022-09-03T00:06:34;17.10;76.10
5061;DHT22;2549;52.128;21.068;2022-09-03T00:11:44;17.00;76.10
5061;DHT22;2549;52.128;21.068;2022-09-03T00:14:24;17.00;76.00
5061;DHT22;2549;52.128;21.068;2022-09-03T00:16:59;16.90;76.00
5061;DHT22;2549;52.128;21.068;2022-09-03T00:19:34;16.90;76.30
5061;DHT22;2549;52.128;21.068;2022-09-03T00:22:09;16.90;76.10
5061;DHT22;2549;52.128;21.068;2022-09-03T00:24:41;16.90;76.10
5061;DHT22;2549;52.128;21.068;2022-09-03T00:27:17;17.00;75.50
5061;DHT22;2549;52.128;21.068;2022-09-03T00:29:50;17.00;75.80
5061;DHT22;2549;52.128;21.068;2022-09-03T00:32:23;16.90;75.90
5061;DHT22;2549;52.128;21.068;2022-09-03T00:34:56;16.80;75.90
5061;DHT22;2549;52.128;21.068;2022-09-03T00:37:26;16.80;76.00
5061;DHT22;2549;52.128;21.068;2022-09-03T00:39:59;16.80;75.90
5061;DHT22;2549;52.128;21.068;2022-09-03T00:42:37;16.70;76.10
5061;DHT22;2549;52.128;21.068;2022-09-03T00:48:13;16.70;75.80
5061;DHT22;2549;52.128;21.068;2022-09-03T00:56:50;16.60;75.80
5061;DHT22;2549;52.128;21.068;2022-09-03T01:04:59;16.60;76.00
5061;DHT22;2549;52.128;21.068;2022-09-03T01:07:53;16.50;75.90
5061;DHT22;2549;52.128;21.068;2022-09-03T01:13:03;16.50;76.10
5061;DHT22;2549;52.128;21.068;2022-09-03T01:16:14;16.40;76.20
5061;DHT22;2549;52.128;21.068;2022-09-03T01:32:24;16.40;76.00
5061;DHT22;2549;52.128;21.068;2022-09-03T01:46:25;16.40;76.10
5061;DHT22;2549;52.128;21.068;2022-09-03T01:49:02;16.40;76.00
5061;DHT22;2549;52.128;21.068;2022-09-03T01:51:30;16.40;75.60
5061;DHT22;2549;52.128;21.068;2022-09-03T02:02:45;16.20;75.80
5061;DHT22;2549;52.128;21.068;2022-09-03T02:07:55;16.20;75.90
5061;DHT22;2549;52.128;21.068;2022-09-03T02:13:13;16.20;76.20
5061;DHT22;2549;52.128;21.068;2022-09-03T02:15:44;16.10;76.10
5061;DHT22;2549;52.128;21.068;2022-09-03T02:18:21;16.10;76.00
5061;DHT22;2549;52.128;21.068;2022-09-03T02:20:49;16.10;76.00
5061;DHT22;2549;52.128;21.068;2022-09-03T02:23:18;16.10;76.00
5061;DHT22;2549;52.128;21.068;2022-09-03T02:25:58;16.00;76.00
5061;DHT22;2549;52.128;21.068;2022-09-03T02:28:27;16.00;76.20
5061;DHT22;2549;52.128;21.068;2022-09-03T02:30:55;16.00;76.20
5061;DHT22;2549;52.128;21.068;2022-09-03T02:33:23;16.00;76.00
5061;DHT22;2549;52.128;21.068;2022-09-03T02:35:50;15.90;76.30
5061;DHT22;2549;52.128;21.068;2022-09-03T02:38:22;15.90;76.40
5061;DHT22;2549;52.128;21.068;2022-09-03T02:40:51;15.90;76.20
5061;DHT22;2549;52.128;21.068;2022-09-03T02:43:49;15.80;76.00
5061;DHT22;2549;52.128;21.068;2022-09-03T02:46:22;15.80;76.00
5061;DHT22;2549;52.128;21.068;2022-09-03T02:48:51;15.80;76.00
5061;DHT22;2549;52.128;21.068;2022-09-03T02:51:19;15.80;75.80
5061;DHT22;2549;52.128;21.068;2022-09-03T02:53:46;15.80;75.70
5061;DHT22;2549;52.128;21.068;2022-09-03T02:56:13;15.80;76.10
5061;DHT22;2549;52.128;21.068;2022-09-03T02:58:40;15.80;76.00
5061;DHT22;2549;52.128;21.068;2022-09-03T03:01:07;15.70;76.20
5061;DHT22;2549;52.128;21.068;2022-09-03T03:03:34;15.70;75.90
5061;DHT22;2549;52.128;21.068;2022-09-03T03:06:03;15.70;75.80
5061;DHT22;2549;52.128;21.068;2022-09-03T03:08:31;15.70;76.00
5061;DHT22;2549;52.128;21.068;2022-09-03T03:11:00;15.60;76.40
5061;DHT22;2549;52.128;21.068;2022-09-03T03:13:28;15.60;76.50
5061;DHT22;2549;52.128;21.068;2022-09-03T03:15:57;15.60;76.50
5061;DHT22;2549;52.128;21.068;2022-09-03T03:18:25;15.50;76.60
5061;DHT22;2549;52.128;21.068;2022-09-03T03:20:52;15.50;76.40
5061;DHT22;2549;52.128;21.068;2022-09-03T03:23:20;15.40;76.90
5061;DHT22;2549;52.128;21.068;2022-09-03T03:25:47;15.40;76.70
5061;DHT22;2549;52.128;21.068;2022-09-03T03:28:14;15.40;76.80
5061;DHT22;2549;52.128;21.068;2022-09-03T03:30:41;15.40;76.90
5061;DHT22;2549;52.128;21.068;2022-09-03T03:33:09;15.30;77.00
5061;DHT22;2549;52.128;21.068;2022-09-03T03:35:36;15.30;77.10
5061;DHT22;2549;52.128;21.068;2022-09-03T03:38:03;15.30;76.70
5061;DHT22;2549;52.128;21.068;2022-09-03T03:40:30;15.20;77.60
5061;DHT22;2549;52.128;21.068;2022-09-03T03:42:58;15.20;77.70
5061;DHT22;2549;52.128;21.068;2022-09-03T03:45:25;15.10;77.70
5061;DHT22;2549;52.128;21.068;2022-09-03T03:47:56;15.10;77.40
5061;DHT22;2549;52.128;21.068;2022-09-03T03:50:24;15.20;77.10
5061;DHT22;2549;52.128;21.068;2022-09-03T03:52:51;15.20;76.80
5061;DHT22;2549;52.128;21.068;2022-09-03T03:55:18;15.20;77.10
5061;DHT22;2549;52.128;21.068;2022-09-03T03:57:45;15.20;77.20
5061;DHT22;2549;52.128;21.068;2022-09-03T04:00:13;15.20;77.10
5061;DHT22;2549;52.128;21.068;2022-09-03T04:02:40;15.20;77.00
5061;DHT22;2549;52.128;21.068;2022-09-03T04:05:07;15.20;77.00
5061;DHT22;2549;52.128;21.068;2022-09-03T04:07:35;15.20;77.10
5061;DHT22;2549;52.128;21.068;2022-09-03T04:10:02;15.20;77.10
5061;DHT22;2549;52.128;21.068;2022-09-03T04:12:29;15.10;77.00
5061;DHT22;2549;52.128;21.068;2022-09-03T04:14:56;15.10;77.10
5061;DHT22;2549;52.128;21.068;2022-09-03T04:17:23;15.10;76.70
5061;DHT22;2549;52.128;21.068;2022-09-03T04:19:51;15.10;76.70
5061;DHT22;2549;52.128;21.068;2022-09-03T04:22:18;15.10;76.60
5061;DHT22;2549;52.128;21.068;2022-09-03T04:24:46;15.10;77.10
5061;DHT22;2549;52.128;21.068;2022-09-03T04:27:13;15.10;76.80
5061;DHT22;2549;52.128;21.068;2022-09-03T04:29:40;15.00;76.70
5061;DHT22;2549;52.128;21.068;2022-09-03T04:32:07;15.00;76.90
5061;DHT22;2549;52.128;21.068;2022-09-03T04:34:52;15.10;76.80
5061;DHT22;2549;52.128;21.068;2022-09-03T04:37:19;15.00;76.80
5061;DHT22;2549;52.128;21.068;2022-09-03T04:39:46;15.00;76.90
5061;DHT22;2549;52.128;21.068;2022-09-03T04:42:14;14.90;77.00
5061;DHT22;2549;52.128;21.068;2022-09-03T04:44:40;14.90;77.10
5061;DHT22;2549;52.128;21.068;2022-09-03T04:47:08;14.90;77.10
5061;DHT22;2549;52.128;21.068;2022-09-03T04:49:35;15.00;77.50
5061;DHT22;2549;52.128;21.068;2022-09-03T04:52:02;14.90;77.10
5061;DHT22;2549;52.128;21.068;2022-09-03T04:54:30;14.90;77.40
5061;DHT22;2549;52.128;21.068;2022-09-03T04:56:57;14.90;77.40
5061;DHT22;2549;52.128;21.068;2022-09-03T04:59:24;14.90;77.40
5061;DHT22;2549;52.128;21.068;2022-09-03T05:01:51;14.90;77.90
5061;DHT22;2549;52.128;21.068;2022-09-03T05:04:22;14.70;78.20
5061;DHT22;2549;52.128;21.068;2022-09-03T05:06:49;14.70;78.00
5061;DHT22;2549;52.128;21.068;2022-09-03T05:09:16;14.60;78.20
5061;DHT22;2549;52.128;21.068;2022-09-03T05:11:43;14.50;78.50
5061;DHT22;2549;52.128;21.068;2022-09-03T05:14:10;14.50;78.80
5061;DHT22;2549;52.128;21.068;2022-09-03T05:16:38;14.50;78.60
5061;DHT22;2549;52.128;21.068;2022-09-03T05:19:05;14.60;79.10
5061;DHT22;2549;52.128;21.068;2022-09-03T05:21:33;14.60;78.90
5061;DHT22;2549;52.128;21.068;2022-09-03T05:24:04;14.70;79.10
5061;DHT22;2549;52.128;21.068;2022-09-03T05:26:35;14.70;79.00
5061;DHT22;2549;52.128;21.068;2022-09-03T05:29:04;14.70;79.00
5061;DHT22;2549;52.128;21.068;2022-09-03T05:31:36;14.80;78.90
5061;DHT22;2549;52.128;21.068;2022-09-03T05:34:05;14.90;78.90
5061;DHT22;2549;52.128;21.068;2022-09-03T05:36:35;14.90;78.60
5061;DHT22;2549;52.128;21.068;2022-09-03T05:39:03;14.90;78.50
5061;DHT22;2549;52.128;21.068;2022-09-03T05:41:31;14.90;78.90
5061;DHT22;2549;52.128;21.068;2022-09-03T05:44:00;14.90;79.00
5061;DHT22;2549;52.128;21.068;2022-09-03T05:46:29;14.90;79.00
5061;DHT22;2549;52.128;21.068;2022-09-03T05:49:04;15.00;79.00
5061;DHT22;2549;52.128;21.068;2022-09-03T05:51:33;15.10;79.10
5061;DHT22;2549;52.128;21.068;2022-09-03T05:54:00;15.20;79.10
5061;DHT22;2549;52.128;21.068;2022-09-03T05:56:30;15.20;78.80
5061;DHT22;2549;52.128;21.068;2022-09-03T05:58:59;15.30;79.10
5061;DHT22;2549;52.128;21.068;2022-09-03T06:01:33;15.30;79.00
5061;DHT22;2549;52.128;21.068;2022-09-03T06:04:05;15.40;79.00
5061;DHT22;2549;52.128;21.068;2022-09-03T06:06:35;15.40;79.00
5061;DHT22;2549;52.128;21.068;2022-09-03T06:09:07;15.50;79.10
5061;DHT22;2549;52.128;21.068;2022-09-03T06:11:37;15.50;78.90
5061;DHT22;2549;52.128;21.068;2022-09-03T06:14:07;15.50;78.90
5061;DHT22;2549;52.128;21.068;2022-09-03T06:16:40;15.60;79.10
5061;DHT22;2549;52.128;21.068;2022-09-03T06:19:08;15.60;79.60
5061;DHT22;2549;52.128;21.068;2022-09-03T06:21:37;15.60;78.90
5061;DHT22;2549;52.128;21.068;2022-09-03T06:24:10;15.60;78.90
5061;DHT22;2549;52.128;21.068;2022-09-03T06:26:40;15.60;78.90
5061;DHT22;2549;52.128;21.068;2022-09-03T06:29:09;15.70;79.80
5061;DHT22;2549;52.128;21.068;2022-09-03T06:31:36;15.70;79.80
5061;DHT22;2549;52.128;21.068;2022-09-03T06:34:03;15.80;80.20
5061;DHT22;2549;52.128;21.068;2022-09-03T06:36:30;15.80;80.10
5061;DHT22;2549;52.128;21.068;2022-09-03T06:38:57;15.80;80.20
5061;DHT22;2549;52.128;21.068;2022-09-03T06:41:27;15.90;79.80
5061;DHT22;2549;52.128;21.068;2022-09-03T06:44:01;16.00;80.00
5061;DHT22;2549;52.128;21.068;2022-09-03T06:46:33;16.00;79.30
5061;DHT22;2549;52.128;21.068;2022-09-03T06:49:01;16.10;79.30
5061;DHT22;2549;52.128;21.068;2022-09-03T06:51:30;16.10;78.50
5061;DHT22;2549;52.128;21.068;2022-09-03T06:54:05;16.20;78.60
5061;DHT22;2549;52.128;21.068;2022-09-03T06:56:33;16.20;78.20
5061;DHT22;2549;52.128;21.068;2022-09-03T06:59:21;16.30;78.40
5061;DHT22;2549;52.128;21.068;2022-09-03T07:01:48;16.40;78.80
5061;DHT22;2549;52.128;21.068;2022-09-03T07:04:15;16.40;78.50
5061;DHT22;2549;52.128;21.068;2022-09-03T07:06:44;16.40;78.30
5061;DHT22;2549;52.128;21.068;2022-09-03T07:09:12;16.50;78.90
5061;DHT22;2549;52.128;21.068;2022-09-03T07:11:41;16.50;79.10
5061;DHT22;2549;52.128;21.068;2022-09-03T07:14:18;16.60;78.90
5061;DHT22;2549;52.128;21.068;2022-09-03T07:16:47;16.60;78.40
5061;DHT22;2549;52.128;21.068;2022-09-03T07:19:15;16.70;78.10
5061;DHT22;2549;52.128;21.068;2022-09-03T07:21:43;16.70;77.70
5061;DHT22;2549;52.128;21.068;2022-09-03T07:24:17;16.80;76.60
5061;DHT22;2549;52.128;21.068;2022-09-03T07:26:44;16.80;76.90
5061;DHT22;2549;52.128;21.068;2022-09-03T07:29:13;16.90;76.60
5061;DHT22;2549;52.128;21.068;2022-09-03T07:31:42;16.90;76.70
5061;DHT22;2549;52.128;21.068;2022-09-03T07:34:11;17.00;77.10
5061;DHT22;2549;52.128;21.068;2022-09-03T07:36:44;17.00;77.00
5061;DHT22;2549;52.128;21.068;2022-09-03T07:39:15;17.10;76.80
5061;DHT22;2549;52.128;21.068;2022-09-03T07:41:44;17.20;77.30
5061;DHT22;2549;52.128;21.068;2022-09-03T07:44:16;17.20;77.30
5061;DHT22;2549;52.128;21.068;2022-09-03T07:46:46;17.30;77.70
5061;DHT22;2549;52.128;21.068;2022-09-03T07:49:14;17.40;77.00
5061;DHT22;2549;52.128;21.068;2022-09-03T07:51:42;17.40;76.90
5061;DHT22;2549;52.128;21.068;2022-09-03T07:54:10;17.50;76.30
5061;DHT22;2549;52.128;21.068;2022-09-03T07:56:38;17.50;76.60
5061;DHT22;2549;52.128;21.068;2022-09-03T07:59:06;17.60;76.30
5061;DHT22;2549;52.128;21.068;2022-09-03T08:01:36;17.60;75.60
5061;DHT22;2549;52.128;21.068;2022-09-03T08:04:07;17.70;75.70
5061;DHT22;2549;52.128;21.068;2022-09-03T08:06:35;17.70;75.70
5061;DHT22;2549;52.128;21.068;2022-09-03T08:09:06;17.80;74.80
5061;DHT22;2549;52.128;21.068;2022-09-03T08:11:36;17.80;75.20
5061;DHT22;2549;52.128;21.068;2022-09-03T08:14:08;17.90;74.50
5061;DHT22;2549;52.128;21.068;2022-09-03T08:16:38;18.00;73.90
5061;DHT22;2549;52.128;21.068;2022-09-03T08:19:05;18.00;71.40
5061;DHT22;2549;52.128;21.068;2022-09-03T08:21:33;18.10;72.40
5061;DHT22;2549;52.128;21.068;2022-09-03T08:24:01;18.10;72.60
5061;DHT22;2549;52.128;21.068;2022-09-03T08:26:39;18.20;73.00
5061;DHT22;2549;52.128;21.068;2022-09-03T08:29:10;18.20;72.50
5061;DHT22;2549;52.128;21.068;2022-09-03T08:31:37;18.30;72.60
5061;DHT22;2549;52.128;21.068;2022-09-03T08:34:05;18.40;71.50
5061;DHT22;2549;52.128;21.068;2022-09-03T08:36:35;18.40;70.10
5061;DHT22;2549;52.128;21.068;2022-09-03T08:39:04;18.40;68.80
5061;DHT22;2549;52.128;21.068;2022-09-03T08:46:53;18.70;66.60
5061;DHT22;2549;52.128;21.068;2022-09-03T08:52:03;18.90;67.00
5061;DHT22;2549;52.128;21.068;2022-09-03T08:54:31;18.90;64.50
5061;DHT22;2549;52.128;21.068;2022-09-03T08:57:01;19.00;64.60
5061;DHT22;2549;52.128;21.068;2022-09-03T08:59:30;19.10;63.40
5061;DHT22;2549;52.128;21.068;2022-09-03T09:02:05;19.20;62.20
5061;DHT22;2549;52.128;21.068;2022-09-03T09:05:02;19.30;63.20
5061;DHT22;2549;52.128;21.068;2022-09-03T09:10:43;19.40;63.90
5061;DHT22;2549;52.128;21.068;2022-09-03T09:13:33;19.40;64.20
5061;DHT22;2549;52.128;21.068;2022-09-03T09:21:30;19.50;61.30
5061;DHT22;2549;52.128;21.068;2022-09-03T09:24:07;19.60;60.70
5061;DHT22;2549;52.128;21.068;2022-09-03T09:26:40;19.60;62.20
5061;DHT22;2549;52.128;21.068;2022-09-03T09:29:08;19.60;60.40
5061;DHT22;2549;52.128;21.068;2022-09-03T09:31:39;19.60;61.00
5061;DHT22;2549;52.128;21.068;2022-09-03T09:34:10;19.60;60.60
5061;DHT22;2549;52.128;21.068;2022-09-03T09:36:56;19.60;61.00
5061;DHT22;2549;52.128;21.068;2022-09-03T09:39:23;19.70;61.00
5061;DHT22;2549;52.128;21.068;2022-09-03T09:42:08;19.70;61.00
5061;DHT22;2549;52.128;21.068;2022-09-03T09:44:38;19.70;59.70
5061;DHT22;2549;52.128;21.068;2022-09-03T09:47:24;19.80;58.90
5061;DHT22;2549;52.128;21.068;2022-09-03T09:49:54;19.90;59.00
5061;DHT22;2549;52.128;21.068;2022-09-03T09:52:23;20.00;59.90
5061;DHT22;2549;52.128;21.068;2022-09-03T09:54:53;20.10;59.30
5061;DHT22;2549;52.128;21.068;2022-09-03T09:57:30;20.10;60.10
5061;DHT22;2549;52.128;21.068;2022-09-03T10:00:13;20.10;59.10
5061;DHT22;2549;52.128;21.068;2022-09-03T10:02:52;20.10;59.40
5061;DHT22;2549;52.128;21.068;2022-09-03T10:05:31;20.10;57.90
5061;DHT22;2549;52.128;21.068;2022-09-03T10:08:16;20.20;57.30
5061;DHT22;2549;52.128;21.068;2022-09-03T10:10:47;20.20;58.10
5061;DHT22;2549;52.128;21.068;2022-09-03T10:15:46;20.30;59.10
5061;DHT22;2549;52.128;21.068;2022-09-03T10:18:16;20.40;58.70
5061;DHT22;2549;52.128;21.068;2022-09-03T10:21:17;20.50;58.90
5061;DHT22;2549;52.128;21.068;2022-09-03T10:26:30;20.60;58.10
5061;DHT22;2549;52.128;21.068;2022-09-03T10:29:02;20.60;58.30
5061;DHT22;2549;52.128;21.068;2022-09-03T10:40:43;20.70;57.50
5061;DHT22;2549;52.128;21.068;2022-09-03T10:46:09;20.90;58.30
5061;DHT22;2549;52.128;21.068;2022-09-03T10:57:30;21.10;58.00
5061;DHT22;2549;52.128;21.068;2022-09-03T11:05:28;21.10;59.60
5061;DHT22;2549;52.128;21.068;2022-09-03T11:08:20;21.00;61.10
5061;DHT22;2549;52.128;21.068;2022-09-03T11:10:55;21.00;60.10
5061;DHT22;2549;52.128;21.068;2022-09-03T11:13:30;21.00;59.20
5061;DHT22;2549;52.128;21.068;2022-09-03T11:16:07;21.10;58.70
5061;DHT22;2549;52.128;21.068;2022-09-03T11:18:46;21.10;58.90
5061;DHT22;2549;52.128;21.068;2022-09-03T11:21:17;21.10;58.50
5061;DHT22;2549;52.128;21.068;2022-09-03T11:23:48;21.10;57.90
5061;DHT22;2549;52.128;21.068;2022-09-03T11:26:23;21.30;58.40
5061;DHT22;2549;52.128;21.068;2022-09-03T11:37:27;21.30;58.20
5061;DHT22;2549;52.128;21.068;2022-09-03T11:40:10;21.20;58.90
5061;DHT22;2549;52.128;21.068;2022-09-03T11:42:40;21.20;57.80
5061;DHT22;2549;52.128;21.068;2022-09-03T11:47:53;21.30;57.50
5061;DHT22;2549;52.128;21.068;2022-09-03T11:50:25;21.30;58.50
5061;DHT22;2549;52.128;21.068;2022-09-03T11:56:11;21.40;58.10
5061;DHT22;2549;52.128;21.068;2022-09-03T11:58:42;21.40;58.70
5061;DHT22;2549;52.128;21.068;2022-09-03T12:01:11;21.40;57.10
5061;DHT22;2549;52.128;21.068;2022-09-03T12:03:56;21.50;56.70
5061;DHT22;2549;52.128;21.068;2022-09-03T12:06:54;21.50;56.60
5061;DHT22;2549;52.128;21.068;2022-09-03T12:18:01;21.70;55.40
5061;DHT22;2549;52.128;21.068;2022-09-03T12:26:19;21.70;55.50
5061;DHT22;2549;52.128;21.068;2022-09-03T12:28:53;21.60;55.60
5061;DHT22;2549;52.128;21.068;2022-09-03T12:31:30;21.70;54.50
5061;DHT22;2549;52.128;21.068;2022-09-03T12:34:02;21.80;55.60
5061;DHT22;2549;52.128;21.068;2022-09-03T12:36:40;21.80;55.40
5061;DHT22;2549;52.128;21.068;2022-09-03T12:39:15;21.90;55.20
5061;DHT22;2549;52.128;21.068;2022-09-03T12:44:29;21.80;56.10
5061;DHT22;2549;52.128;21.068;2022-09-03T12:50:03;21.90;56.60
5061;DHT22;2549;52.128;21.068;2022-09-03T12:52:36;21.90;56.80
5061;DHT22;2549;52.128;21.068;2022-09-03T12:55:13;21.90;56.40
5061;DHT22;2549;52.128;21.068;2022-09-03T12:58:34;21.90;55.70
5061;DHT22;2549;52.128;21.068;2022-09-03T13:04:10;21.90;54.80
5061;DHT22;2549;52.128;21.068;2022-09-03T13:06:27;21.90;54.50
5061;DHT22;2549;52.128;21.068;2022-09-03T13:09:04;22.00;55.80
5061;DHT22;2549;52.128;21.068;2022-09-03T13:11:33;22.10;55.70
5061;DHT22;2549;52.128;21.068;2022-09-03T13:14:06;22.10;55.60
5061;DHT22;2549;52.128;21.068;2022-09-03T13:35:50;22.30;54.60
5061;DHT22;2549;52.128;21.068;2022-09-03T13:38:41;22.30;56.10
5061;DHT22;2549;52.128;21.068;2022-09-03T13:41:15;22.40;56.40
5061;DHT22;2549;52.128;21.068;2022-09-03T13:43:56;22.40;56.30
5061;DHT22;2549;52.128;21.068;2022-09-03T13:46:45;22.40;56.00
5061;DHT22;2549;52.128;21.068;2022-09-03T13:49:48;22.40;56.10
5061;DHT22;2549;52.128;21.068;2022-09-03T13:53:09;22.20;55.20
5061;DHT22;2549;52.128;21.068;2022-09-03T13:55:50;22.30;55.90
5061;DHT22;2549;52.128;21.068;2022-09-03T13:58:32;22.30;55.70
5061;DHT22;2549;52.128;21.068;2022-09-03T14:01:12;22.40;56.00
5061;DHT22;2549;52.128;21.068;2022-09-03T14:03:51;22.40;55.70
5061;DHT22;2549;52.128;21.068;2022-09-03T14:18:43;22.50;55.20
5061;DHT22;2549;52.128;21.068;2022-09-03T14:20:53;22.40;55.70
5061;DHT22;2549;52.128;21.068;2022-09-03T14:26:26;22.50;55.00
5061;DHT22;2549;52.128;21.068;2022-09-03T14:55:49;22.40;56.00
5061;DHT22;2549;52.128;21.068;2022-09-03T15:01:31;22.50;56.90
5061;DHT22;2549;52.128;21.068;2022-09-03T15:04:45;22.50;55.20
5061;DHT22;2549;52.128;21.068;2022-09-03T15:12:51;22.50;56.40
5061;DHT22;2549;52.128;21.068;2022-09-03T15:15:32;22.40;56.40
5061;DHT22;2549;52.128;21.068;2022-09-03T15:18:28;22.50;57.40
5061;DHT22;2549;52.128;21.068;2022-09-03T15:32:20;22.50;56.60
5061;DHT22;2549;52.128;21.068;2022-09-03T15:37:47;22.50;56.00
5061;DHT22;2549;52.128;21.068;2022-09-03T15:40:33;22.50;56.20
5061;DHT22;2549;52.128;21.068;2022-09-03T15:43:09;22.60;56.90
5061;DHT22;2549;52.128;21.068;2022-09-03T15:45:54;22.50;57.00
5061;DHT22;2549;52.128;21.068;2022-09-03T15:49:24;22.50;56.60
5061;DHT22;2549;52.128;21.068;2022-09-03T15:52:07;22.50;56.20
5061;DHT22;2549;52.128;21.068;2022-09-03T15:54:47;22.50;56.30
5061;DHT22;2549;52.128;21.068;2022-09-03T15:57:23;22.50;56.00
5061;DHT22;2549;52.128;21.068;2022-09-03T16:00:05;22.50;55.70
5061;DHT22;2549;52.128;21.068;2022-09-03T16:02:44;22.50;56.20
5061;DHT22;2549;52.128;21.068;2022-09-03T16:05:27;22.50;56.70
5061;DHT22;2549;52.128;21.068;2022-09-03T16:13:31;22.50;56.70
5061;DHT22;2549;52.128;21.068;2022-09-03T16:16:05;22.40;57.20
5061;DHT22;2549;52.128;21.068;2022-09-03T16:19:23;22.40;57.50
5061;DHT22;2549;52.128;21.068;2022-09-03T16:24:40;22.40;57.20
5061;DHT22;2549;52.128;21.068;2022-09-03T16:27:23;22.40;57.60
5061;DHT22;2549;52.128;21.068;2022-09-03T16:31:24;22.40;57.50
5061;DHT22;2549;52.128;21.068;2022-09-03T16:33:29;22.40;57.40
5061;DHT22;2549;52.128;21.068;2022-09-03T16:39:15;22.30;57.90
5061;DHT22;2549;52.128;21.068;2022-09-03T16:44:46;22.20;58.30
5061;DHT22;2549;52.128;21.068;2022-09-03T16:47:33;22.20;58.70
5061;DHT22;2549;52.128;21.068;2022-09-03T16:55:24;22.10;60.40
5061;DHT22;2549;52.128;21.068;2022-09-03T16:58:18;22.10;61.00
5061;DHT22;2549;52.128;21.068;2022-09-03T17:08:49;21.90;64.10
5061;DHT22;2549;52.128;21.068;2022-09-03T17:16:54;21.70;62.10
5061;DHT22;2549;52.128;21.068;2022-09-03T17:19:43;21.60;61.30
5061;DHT22;2549;52.128;21.068;2022-09-03T17:25:20;21.60;61.00
5061;DHT22;2549;52.128;21.068;2022-09-03T17:28:25;21.50;61.80
5061;DHT22;2549;52.128;21.068;2022-09-03T17:31:11;21.50;62.30
5061;DHT22;2549;52.128;21.068;2022-09-03T17:34:10;21.50;63.00
5061;DHT22;2549;52.128;21.068;2022-09-03T17:42:48;21.30;65.00
5061;DHT22;2549;52.128;21.068;2022-09-03T17:51:14;21.20;66.60
5061;DHT22;2549;52.128;21.068;2022-09-03T17:59:18;21.00;67.80
5061;DHT22;2549;52.128;21.068;2022-09-03T18:01:53;20.90;68.20
5061;DHT22;2549;52.128;21.068;2022-09-03T18:04:45;20.90;68.90
5061;DHT22;2549;52.128;21.068;2022-09-03T18:07:43;20.80;69.60
5061;DHT22;2549;52.128;21.068;2022-09-03T18:10:22;20.80;70.10
5061;DHT22;2549;52.128;21.068;2022-09-03T18:13:49;20.70;70.00
5061;DHT22;2549;52.128;21.068;2022-09-03T18:16:06;20.70;69.60
5061;DHT22;2549;52.128;21.068;2022-09-03T18:18:41;20.60;69.30
5061;DHT22;2549;52.128;21.068;2022-09-03T18:21:12;20.60;69.40
5061;DHT22;2549;52.128;21.068;2022-09-03T18:30:19;20.50;70.00
5061;DHT22;2549;52.128;21.068;2022-09-03T18:33:04;20.40;70.60
5061;DHT22;2549;52.128;21.068;2022-09-03T18:35:50;20.30;71.00
5061;DHT22;2549;52.128;21.068;2022-09-03T18:38:37;20.30;71.00
5061;DHT22;2549;52.128;21.068;2022-09-03T18:47:51;20.20;70.30
5061;DHT22;2549;52.128;21.068;2022-09-03T18:53:44;20.10;69.70
5061;DHT22;2549;52.128;21.068;2022-09-03T18:56:50;20.10;69.70
5061;DHT22;2549;52.128;21.068;2022-09-03T18:59:48;20.10;69.80
5061;DHT22;2549;52.128;21.068;2022-09-03T19:09:16;20.00;70.50
5061;DHT22;2549;52.128;21.068;2022-09-03T19:12:18;20.00;70.40
5061;DHT22;2549;52.128;21.068;2022-09-03T19:15:18;19.90;70.30
5061;DHT22;2549;52.128;21.068;2022-09-03T19:21:21;19.90;70.40
5061;DHT22;2549;52.128;21.068;2022-09-03T19:24:10;19.80;70.00
5061;DHT22;2549;52.128;21.068;2022-09-03T19:27:08;19.80;69.70
5061;DHT22;2549;52.128;21.068;2022-09-03T19:30:32;19.80;69.80
5061;DHT22;2549;52.128;21.068;2022-09-03T19:33:25;19.80;69.10
5061;DHT22;2549;52.128;21.068;2022-09-03T19:37:08;19.80;69.30
5061;DHT22;2549;52.128;21.068;2022-09-03T19:39:53;19.70;69.70
5061;DHT22;2549;52.128;21.068;2022-09-03T19:52:09;19.60;69.60
5061;DHT22;2549;52.128;21.068;2022-09-03T19:54:59;19.60;69.40
5061;DHT22;2549;52.128;21.068;2022-09-03T19:57:51;19.60;69.70
5061;DHT22;2549;52.128;21.068;2022-09-03T20:00:57;19.50;69.80
5061;DHT22;2549;52.128;21.068;2022-09-03T20:03:42;19.50;70.10
5061;DHT22;2549;52.128;21.068;2022-09-03T20:06:29;19.50;70.30
5061;DHT22;2549;52.128;21.068;2022-09-03T20:09:17;19.50;70.70
5061;DHT22;2549;52.128;21.068;2022-09-03T20:12:07;19.50;70.50
5061;DHT22;2549;52.128;21.068;2022-09-03T20:14:36;19.40;70.80
5061;DHT22;2549;52.128;21.068;2022-09-03T20:25:19;19.30;71.40
5061;DHT22;2549;52.128;21.068;2022-09-03T20:36:33;19.20;69.00
5061;DHT22;2549;52.128;21.068;2022-09-03T20:47:23;19.10;69.20
5061;DHT22;2549;52.128;21.068;2022-09-03T20:49:58;19.10;69.40
5061;DHT22;2549;52.128;21.068;2022-09-03T20:55:25;19.10;69.50
5061;DHT22;2549;52.128;21.068;2022-09-03T21:03:18;19.00;69.30
5061;DHT22;2549;52.128;21.068;2022-09-03T21:06:11;19.00;68.90
5061;DHT22;2549;52.128;21.068;2022-09-03T21:16:55;19.00;68.40
5061;DHT22;2549;52.128;21.068;2022-09-03T21:19:47;19.00;68.40
5061;DHT22;2549;52.128;21.068;2022-09-03T21:25:16;19.00;69.40
5061;DHT22;2549;52.128;21.068;2022-09-03T21:27:50;18.90;70.40
5061;DHT22;2549;52.128;21.068;2022-09-03T21:30:19;18.80;70.80
5061;DHT22;2549;52.128;21.068;2022-09-03T21:32:58;18.80;70.80
5061;DHT22;2549;52.128;21.068;2022-09-03T21:38:56;18.60;70.70
5061;DHT22;2549;52.128;21.068;2022-09-03T21:47:11;18.50;70.10
5061;DHT22;2549;52.128;21.068;2022-09-03T21:50:27;18.40;69.70
5061;DHT22;2549;52.128;21.068;2022-09-03T21:52:50;18.50;70.00
5061;DHT22;2549;52.128;21.068;2022-09-03T21:55:34;18.50;69.90
5061;DHT22;2549;52.128;21.068;2022-09-03T22:01:18;18.50;70.50
5061;DHT22;2549;52.128;21.068;2022-09-03T22:03:46;18.40;70.60
5061;DHT22;2549;52.128;21.068;2022-09-03T22:06:16;18.40;70.90
5061;DHT22;2549;52.128;21.068;2022-09-03T22:11:34;18.30;70.30
5061;DHT22;2549;52.128;21.068;2022-09-03T22:14:11;18.30;70.20
5061;DHT22;2549;52.128;21.068;2022-09-03T22:16:58;18.30;70.10
5061;DHT22;2549;52.128;21.068;2022-09-03T22:19:32;18.30;70.50
5061;DHT22;2549;52.128;21.068;2022-09-03T22:22:06;18.30;70.50
5061;DHT22;2549;52.128;21.068;2022-09-03T22:25:04;18.30;70.50
5061;DHT22;2549;52.128;21.068;2022-09-03T22:30:36;18.30;71.00
5061;DHT22;2549;52.128;21.068;2022-09-03T22:33:49;18.30;71.30
5061;DHT22;2549;52.128;21.068;2022-09-03T22:36:39;18.20;71.50
5061;DHT22;2549;52.128;21.068;2022-09-03T22:52:41;18.00;72.50
5061;DHT22;2549;52.128;21.068;2022-09-03T22:55:21;18.00;72.70
5061;DHT22;2549;52.128;21.068;2022-09-03T23:00:29;17.90;72.80
5061;DHT22;2549;52.128;21.068;2022-09-03T23:03:03;17.90;72.60
5061;DHT22;2549;52.128;21.068;2022-09-03T23:05:43;17.80;72.70
5061;DHT22;2549;52.128;21.068;2022-09-03T23:08:16;17.80;73.20
5061;DHT22;2549;52.128;21.068;2022-09-03T23:13:46;17.80;73.20
5061;DHT22;2549;52.128;21.068;2022-09-03T23:16:44;17.80;72.40
5061;DHT22;2549;52.128;21.068;2022-09-03T23:19:29;17.70;72.80